sensor_id;sensor_type;location;lat;lon;timestamp;pressure;altitude;pressure_sealevel;temperature;humidity
76114;BME280;64845;53.086;5.834;2022-12-19T00:00:48;101767.53;;;-0.47;75.33
76114;BME280;64845;53.086;5.834;2022-12-19T00:03:14;101765.81;;;-0.45;75.50
76114;BME280;64845;53.086;5.834;2022-12-19T00:05:40;101761.47;;;-0.44;75.75
76114;BME280;64845;53.086;5.834;2022-12-19T00:08:14;101772.91;;;-0.41;75.55
76114;BME280;64845;53.086;5.834;2022-12-19T00:10:40;101764.19;;;-0.40;75.83
76114;BME280;64845;53.086;5.834;2022-12-19T00:13:06;101769.44;;;-0.38;76.00
76114;BME280;64845;53.086;5.834;2022-12-19T00:15:33;101767.75;;;-0.36;75.93
76114;BME280;64845;53.086;5.834;2022-12-19T00:17:58;101769.56;;;-0.34;75.84
76114;BME280;64845;53.086;5.834;2022-12-19T00:20:24;101765.19;;;-0.33;75.77
76114;BME280;64845;53.086;5.834;2022-12-19T00:22:49;101759.09;;;-0.32;76.00
76114;BME280;64845;53.086;5.834;2022-12-19T00:25:14;101758.28;;;-0.29;76.11
76114;BME280;64845;53.086;5.834;2022-12-19T00:27:40;101765.28;;;-0.28;76.00
76114;BME280;64845;53.086;5.834;2022-12-19T00:30:06;101750.44;;;-0.28;75.84
76114;BME280;64845;53.086;5.834;2022-12-19T00:32:31;101750.44;;;-0.28;76.31
76114;BME280;64845;53.086;5.834;2022-12-19T00:34:56;101738.19;;;-0.27;76.26
76114;BME280;64845;53.086;5.834;2022-12-19T00:37:22;101713.72;;;-0.26;76.02
76114;BME280;64845;53.086;5.834;2022-12-19T00:39:47;101700.59;;;-0.26;76.59
76114;BME280;64845;53.086;5.834;2022-12-19T00:42:12;101706.75;;;-0.26;76.47
76114;BME280;64845;53.086;5.834;2022-12-19T00:44:38;101705.00;;;-0.25;76.66
76114;BME280;64845;53.086;5.834;2022-12-19T00:47:03;101711.13;;;-0.25;76.64
76114;BME280;64845;53.086;5.834;2022-12-19T00:49:28;101709.38;;;-0.26;76.29
76114;BME280;64845;53.086;5.834;2022-12-19T00:51:54;101708.50;;;-0.25;76.74
76114;BME280;64845;53.086;5.834;2022-12-19T00:54:21;101691.00;;;-0.26;76.85
76114;BME280;64845;53.086;5.834;2022-12-19T00:56:47;101691.00;;;-0.24;76.86
76114;BME280;64845;53.086;5.834;2022-12-19T00:59:12;101692.78;;;-0.23;76.63
76114;BME280;64845;53.086;5.834;2022-12-19T01:01:39;101691.06;;;-0.21;77.04
76114;BME280;64845;53.086;5.834;2022-12-19T01:04:06;101677.09;;;-0.20;76.94
76114;BME280;64845;53.086;5.834;2022-12-19T01:06:32;101659.63;;;-0.18;77.28
76114;BME280;64845;53.086;5.834;2022-12-19T01:08:57;101671.91;;;-0.17;76.96
76114;BME280;64845;53.086;5.834;2022-12-19T01:11:23;101673.63;;;-0.18;76.97
76114;BME280;64845;53.086;5.834;2022-12-19T01:14:07;101664.03;;;-0.17;77.18
76114;BME280;64845;53.086;5.834;2022-12-19T01:16:33;101663.19;;;-0.16;77.15
76114;BME280;64845;53.086;5.834;2022-12-19T01:18:58;101657.03;;;-0.17;77.13
76114;BME280;64845;53.086;5.834;2022-12-19T01:21:24;101659.69;;;-0.15;77.63
76114;BME280;64845;53.086;5.834;2022-12-19T01:23:49;101669.34;;;-0.14;77.38
76114;BME280;64845;53.086;5.834;2022-12-19T01:26:15;101653.63;;;-0.12;77.52
76114;BME280;64845;53.086;5.834;2022-12-19T01:28:40;101658.00;;;-0.13;77.64
76114;BME280;64845;53.086;5.834;2022-12-19T01:31:05;101653.63;;;-0.12;77.37
76114;BME280;64845;53.086;5.834;2022-12-19T01:33:31;101659.72;;;-0.13;77.52
76114;BME280;64845;53.086;5.834;2022-12-19T01:35:56;101637.00;;;-0.13;77.53
76114;BME280;64845;53.086;5.834;2022-12-19T01:38:21;101637.84;;;-0.14;77.81
76114;BME280;64845;53.086;5.834;2022-12-19T01:40:51;101629.13;;;-0.13;77.63
76114;BME280;64845;53.086;5.834;2022-12-19T01:43:17;101617.75;;;-0.12;77.73
76114;BME280;64845;53.086;5.834;2022-12-19T01:45:43;101611.59;;;-0.12;77.55
76114;BME280;64845;53.086;5.834;2022-12-19T01:51:00;101601.16;;;-0.11;77.97
76114;BME280;64845;53.086;5.834;2022-12-19T01:53:32;101613.44;;;-0.10;77.88
76114;BME280;64845;53.086;5.834;2022-12-19T01:55:59;101605.56;;;-0.08;78.21
76114;BME280;64845;53.086;5.834;2022-12-19T01:58:26;101598.56;;;-0.08;77.85
76114;BME280;64845;53.086;5.834;2022-12-19T02:00:51;101600.31;;;-0.07;77.94
76114;BME280;64845;53.086;5.834;2022-12-19T02:03:26;101602.09;;;-0.06;78.20
76114;BME280;64845;53.086;5.834;2022-12-19T02:05:53;101596.88;;;-0.04;78.19
76114;BME280;64845;53.086;5.834;2022-12-19T02:08:19;101600.38;;;-0.04;78.48
76114;BME280;64845;53.086;5.834;2022-12-19T02:10:45;101596.91;;;-0.03;78.45
76114;BME280;64845;53.086;5.834;2022-12-19T02:13:11;101589.88;;;-0.04;78.42
76114;BME280;64845;53.086;5.834;2022-12-19T02:19:09;101593.41;;;-0.02;78.55
76114;BME280;64845;53.086;5.834;2022-12-19T02:26:57;101579.44;;;-0.01;78.64
76114;BME280;64845;53.086;5.834;2022-12-19T02:29:44;101578.59;;;0.01;78.96
76114;BME280;64845;53.086;5.834;2022-12-19T02:32:43;101576.81;;;0.01;78.97
76114;BME280;64845;53.086;5.834;2022-12-19T02:37:44;101572.47;;;0.02;78.98
76114;BME280;64845;53.086;5.834;2022-12-19T02:40:16;101562.88;;;0.04;79.18
76114;BME280;64845;53.086;5.834;2022-12-19T02:42:47;101552.38;;;0.05;79.15
76114;BME280;64845;53.086;5.834;2022-12-19T02:45:17;101562.94;;;0.07;79.58
76114;BME280;64845;53.086;5.834;2022-12-19T02:47:43;101546.31;;;0.08;79.30
76114;BME280;64845;53.086;5.834;2022-12-19T02:50:10;101533.19;;;0.08;79.20
76114;BME280;64845;53.086;5.834;2022-12-19T02:55:25;101521.84;;;0.12;79.61
76114;BME280;64845;53.086;5.834;2022-12-19T03:00:51;101521.00;;;0.13;79.82
76114;BME280;64845;53.086;5.834;2022-12-19T03:08:45;101509.72;;;0.19;79.48
76114;BME280;64845;53.086;5.834;2022-12-19T03:11:12;101514.09;;;0.20;79.54
76114;BME280;64845;53.086;5.834;2022-12-19T03:13:52;101522.00;;;0.21;79.90
76114;BME280;64845;53.086;5.834;2022-12-19T03:16:18;101525.53;;;0.23;79.89
76114;BME280;64845;53.086;5.834;2022-12-19T03:18:44;101520.31;;;0.25;79.80
76114;BME280;64845;53.086;5.834;2022-12-19T03:21:11;101509.78;;;0.25;79.66
76114;BME280;64845;53.086;5.834;2022-12-19T03:23:39;101521.22;;;0.27;80.00
76114;BME280;64845;53.086;5.834;2022-12-19T03:26:17;101516.84;;;0.27;80.24
76114;BME280;64845;53.086;5.834;2022-12-19T03:28:51;101521.25;;;0.28;80.21
76114;BME280;64845;53.086;5.834;2022-12-19T03:31:21;101510.75;;;0.32;80.27
76114;BME280;64845;53.086;5.834;2022-12-19T03:33:51;101506.38;;;0.30;80.17
76114;BME280;64845;53.086;5.834;2022-12-19T03:36:21;101503.78;;;0.34;80.53
76114;BME280;64845;53.086;5.834;2022-12-19T03:38:49;101502.06;;;0.34;80.46
76114;BME280;64845;53.086;5.834;2022-12-19T03:41:15;101496.84;;;0.37;80.50
76114;BME280;64845;53.086;5.834;2022-12-19T03:44:05;101494.19;;;0.36;80.20
76114;BME280;64845;53.086;5.834;2022-12-19T03:46:33;101473.16;;;0.36;80.38
76114;BME280;64845;53.086;5.834;2022-12-19T03:48:59;101462.66;;;0.36;80.96
76114;BME280;64845;53.086;5.834;2022-12-19T03:54:17;101471.44;;;0.38;80.89
76114;BME280;64845;53.086;5.834;2022-12-19T03:56:51;101471.50;;;0.41;80.75
76114;BME280;64845;53.086;5.834;2022-12-19T03:59:32;101463.63;;;0.42;81.14
76114;BME280;64845;53.086;5.834;2022-12-19T04:02:00;101461.91;;;0.43;81.00
76114;BME280;64845;53.086;5.834;2022-12-19T04:04:27;101446.13;;;0.44;81.24
76114;BME280;64845;53.086;5.834;2022-12-19T04:06:53;101454.06;;;0.46;81.18
76114;BME280;64845;53.086;5.834;2022-12-19T04:09:21;101448.81;;;0.48;81.02
76114;BME280;64845;53.086;5.834;2022-12-19T04:11:54;101454.06;;;0.49;81.05
76114;BME280;64845;53.086;5.834;2022-12-19T04:14:30;101452.34;;;0.51;81.20
76114;BME280;64845;53.086;5.834;2022-12-19T04:19:51;101439.28;;;0.56;81.41
76114;BME280;64845;53.086;5.834;2022-12-19T04:22:33;101434.94;;;0.58;81.40
76114;BME280;64845;53.086;5.834;2022-12-19T04:25:02;101424.44;;;0.59;81.46
76114;BME280;64845;53.086;5.834;2022-12-19T04:27:33;101421.84;;;0.63;80.97
76114;BME280;64845;53.086;5.834;2022-12-19T04:30:00;101419.22;;;0.64;81.59
76114;BME280;64845;53.086;5.834;2022-12-19T04:32:28;101412.22;;;0.66;81.42
76114;BME280;64845;53.086;5.834;2022-12-19T04:34:54;101420.16;;;0.69;81.77
76114;BME280;64845;53.086;5.834;2022-12-19T04:37:19;101415.81;;;0.73;81.72
76114;BME280;64845;53.086;5.834;2022-12-19T04:39:45;101421.97;;;0.75;81.28
76114;BME280;64845;53.086;5.834;2022-12-19T04:42:10;101419.38;;;0.77;81.85
76114;BME280;64845;53.086;5.834;2022-12-19T04:44:35;101411.50;;;0.80;81.87
76114;BME280;64845;53.086;5.834;2022-12-19T04:47:01;101410.66;;;0.82;81.33
76114;BME280;64845;53.086;5.834;2022-12-19T04:49:26;101406.31;;;0.84;81.59
76114;BME280;64845;53.086;5.834;2022-12-19T04:51:52;101392.28;;;0.87;81.30
76114;BME280;64845;53.086;5.834;2022-12-19T04:54:17;101395.81;;;0.90;81.89
76114;BME280;64845;53.086;5.834;2022-12-19T04:56:42;101394.09;;;0.91;81.66
76114;BME280;64845;53.086;5.834;2022-12-19T04:59:08;101388.88;;;0.94;81.65
76114;BME280;64845;53.086;5.834;2022-12-19T05:01:34;101390.63;;;0.95;81.45
76114;BME280;64845;53.086;5.834;2022-12-19T05:03:59;101376.63;;;0.98;81.71
76114;BME280;64845;53.086;5.834;2022-12-19T05:06:24;101380.16;;;1.00;81.62
76114;BME280;64845;53.086;5.834;2022-12-19T05:08:50;101379.31;;;1.04;82.15
76114;BME280;64845;53.086;5.834;2022-12-19T05:11:15;101374.97;;;1.06;82.17
76114;BME280;64845;53.086;5.834;2022-12-19T05:13:41;101370.56;;;1.08;81.60
76114;BME280;64845;53.086;5.834;2022-12-19T05:16:09;101371.47;;;1.10;82.31
76114;BME280;64845;53.086;5.834;2022-12-19T05:18:36;101361.88;;;1.14;82.25
76114;BME280;64845;53.086;5.834;2022-12-19T05:21:02;101364.53;;;1.17;82.12
76114;BME280;64845;53.086;5.834;2022-12-19T05:23:28;101362.78;;;1.17;81.94
76114;BME280;64845;53.086;5.834;2022-12-19T05:25:56;101366.31;;;1.19;81.95
76114;BME280;64845;53.086;5.834;2022-12-19T05:28:22;101354.91;;;1.20;82.62
76114;BME280;64845;53.086;5.834;2022-12-19T05:30:47;101360.16;;;1.22;82.15
76114;BME280;64845;53.086;5.834;2022-12-19T05:33:13;101360.19;;;1.24;82.61
76114;BME280;64845;53.086;5.834;2022-12-19T05:35:38;101363.69;;;1.24;82.45
76114;BME280;64845;53.086;5.834;2022-12-19T05:38:04;101356.69;;;1.26;82.35
76114;BME280;64845;53.086;5.834;2022-12-19T05:40:30;101354.97;;;1.27;82.16
76114;BME280;64845;53.086;5.834;2022-12-19T05:42:56;101356.69;;;1.28;82.19
76114;BME280;64845;53.086;5.834;2022-12-19T05:45:21;101349.72;;;1.28;82.41
76114;BME280;64845;53.086;5.834;2022-12-19T05:47:47;101350.56;;;1.29;82.65
76114;BME280;64845;53.086;5.834;2022-12-19T05:50:13;101351.47;;;1.31;82.65
76114;BME280;64845;53.086;5.834;2022-12-19T05:52:39;101342.72;;;1.32;82.59
76114;BME280;64845;53.086;5.834;2022-12-19T05:55:06;101330.44;;;1.34;82.88
76114;BME280;64845;53.086;5.834;2022-12-19T05:57:31;101348.91;;;1.35;82.41
76114;BME280;64845;53.086;5.834;2022-12-19T05:59:57;101348.03;;;1.37;82.46
76114;BME280;64845;53.086;5.834;2022-12-19T06:02:22;101345.41;;;1.38;82.28
76114;BME280;64845;53.086;5.834;2022-12-19T06:04:48;101340.13;;;1.40;83.02
76114;BME280;64845;53.086;5.834;2022-12-19T06:07:13;101334.00;;;1.41;82.98
76114;BME280;64845;53.086;5.834;2022-12-19T06:09:39;101348.06;;;1.44;82.68
76114;BME280;64845;53.086;5.834;2022-12-19T06:12:04;101343.72;;;1.46;83.07
76114;BME280;64845;53.086;5.834;2022-12-19T06:14:30;101332.28;;;1.47;83.17
76114;BME280;64845;53.086;5.834;2022-12-19T06:16:55;101341.97;;;1.50;82.64
76114;BME280;64845;53.086;5.834;2022-12-19T06:19:21;101342.88;;;1.52;82.54
76114;BME280;64845;53.086;5.834;2022-12-19T06:21:46;101341.09;;;1.53;83.13
76114;BME280;64845;53.086;5.834;2022-12-19T06:24:11;101331.50;;;1.56;83.21
76114;BME280;64845;53.086;5.834;2022-12-19T06:26:37;101336.75;;;1.58;83.15
76114;BME280;64845;53.086;5.834;2022-12-19T06:29:02;101324.47;;;1.61;83.36
76114;BME280;64845;53.086;5.834;2022-12-19T06:31:28;101323.63;;;1.64;83.18
76114;BME280;64845;53.086;5.834;2022-12-19T06:33:53;101312.22;;;1.66;83.25
76114;BME280;64845;53.086;5.834;2022-12-19T06:36:21;101315.75;;;1.69;83.50
76114;BME280;64845;53.086;5.834;2022-12-19T06:38:47;101304.34;;;1.71;83.57
76114;BME280;64845;53.086;5.834;2022-12-19T06:41:15;101294.75;;;1.75;83.78
76114;BME280;64845;53.086;5.834;2022-12-19T06:44:02;101299.13;;;1.79;83.21
76114;BME280;64845;53.086;5.834;2022-12-19T06:46:28;101309.69;;;1.80;83.52
76114;BME280;64845;53.086;5.834;2022-12-19T06:48:53;101300.03;;;1.83;83.93
76114;BME280;64845;53.086;5.834;2022-12-19T06:51:39;101310.59;;;1.86;83.82
76114;BME280;64845;53.086;5.834;2022-12-19T06:54:05;101315.84;;;1.89;83.54
76114;BME280;64845;53.086;5.834;2022-12-19T06:56:37;101313.22;;;1.92;83.36
76114;BME280;64845;53.086;5.834;2022-12-19T06:59:03;101311.47;;;1.94;83.54
76114;BME280;64845;53.086;5.834;2022-12-19T07:01:40;101300.06;;;1.96;83.47
76114;BME280;64845;53.086;5.834;2022-12-19T07:04:09;101308.03;;;2.01;83.94
76114;BME280;64845;53.086;5.834;2022-12-19T07:06:36;101313.31;;;2.04;83.75
76114;BME280;64845;53.086;5.834;2022-12-19T07:09:02;101315.94;;;2.09;84.25
76114;BME280;64845;53.086;5.834;2022-12-19T07:11:28;101323.84;;;2.14;84.21
76114;BME280;64845;53.086;5.834;2022-12-19T07:13:53;101323.00;;;2.18;83.68
76114;BME280;64845;53.086;5.834;2022-12-19T07:16:18;101314.25;;;2.22;84.19
76114;BME280;64845;53.086;5.834;2022-12-19T07:18:44;101312.47;;;2.25;84.14
76114;BME280;64845;53.086;5.834;2022-12-19T07:21:10;101318.66;;;2.32;84.04
76114;BME280;64845;53.086;5.834;2022-12-19T07:23:35;101319.53;;;2.37;84.19
76114;BME280;64845;53.086;5.834;2022-12-19T07:26:02;101319.56;;;2.42;84.73
76114;BME280;64845;53.086;5.834;2022-12-19T07:28:27;101308.16;;;2.49;84.50
76114;BME280;64845;53.086;5.834;2022-12-19T07:30:52;101312.56;;;2.55;84.82
76114;BME280;64845;53.086;5.834;2022-12-19T07:33:18;101324.88;;;2.62;85.09
76114;BME280;64845;53.086;5.834;2022-12-19T07:35:43;101324.03;;;2.71;85.00
76114;BME280;64845;53.086;5.834;2022-12-19T07:38:09;101311.69;;;2.76;85.18
76114;BME280;64845;53.086;5.834;2022-12-19T07:40:34;101313.47;;;2.82;84.91
76114;BME280;64845;53.086;5.834;2022-12-19T07:43:04;101317.00;;;2.89;85.39
76114;BME280;64845;53.086;5.834;2022-12-19T07:45:30;101326.66;;;2.94;85.27
76114;BME280;64845;53.086;5.834;2022-12-19T07:47:59;101320.53;;;2.98;85.35
76114;BME280;64845;53.086;5.834;2022-12-19T07:50:25;101325.78;;;3.03;85.38
76114;BME280;64845;53.086;5.834;2022-12-19T07:52:50;101322.25;;;3.09;85.31
76114;BME280;64845;53.086;5.834;2022-12-19T07:55:15;101320.50;;;3.14;85.52
76114;BME280;64845;53.086;5.834;2022-12-19T07:57:41;101325.78;;;3.17;85.72
76114;BME280;64845;53.086;5.834;2022-12-19T08:00:07;101321.38;;;3.21;85.71
76114;BME280;64845;53.086;5.834;2022-12-19T08:02:32;101335.47;;;3.26;85.18
76114;BME280;64845;53.086;5.834;2022-12-19T08:04:57;101329.28;;;3.28;85.61
76114;BME280;64845;53.086;5.834;2022-12-19T08:07:23;101318.75;;;3.33;85.86
76114;BME280;64845;53.086;5.834;2022-12-19T08:09:48;101319.63;;;3.37;85.51
76114;BME280;64845;53.086;5.834;2022-12-19T08:12:13;101317.84;;;3.42;85.56
76114;BME280;64845;53.086;5.834;2022-12-19T08:14:39;101318.72;;;3.44;86.00
76114;BME280;64845;53.086;5.834;2022-12-19T08:17:04;101325.75;;;3.48;85.73
76114;BME280;64845;53.086;5.834;2022-12-19T08:19:29;101329.28;;;3.52;85.55
76114;BME280;64845;53.086;5.834;2022-12-19T08:21:55;101310.78;;;3.53;86.23
76114;BME280;64845;53.086;5.834;2022-12-19T08:24:20;101320.47;;;3.57;85.47
76114;BME280;64845;53.086;5.834;2022-12-19T08:26:45;101321.31;;;3.61;85.80
76114;BME280;64845;53.086;5.834;2022-12-19T08:29:11;101317.78;;;3.63;85.58
76114;BME280;64845;53.086;5.834;2022-12-19T08:31:36;101323.09;;;3.65;85.84
76114;BME280;64845;53.086;5.834;2022-12-19T08:34:02;101330.09;;;3.68;85.68
76114;BME280;64845;53.086;5.834;2022-12-19T08:36:27;101320.41;;;3.73;86.33
76114;BME280;64845;53.086;5.834;2022-12-19T08:38:53;101316.91;;;3.74;86.17
76114;BME280;64845;53.086;5.834;2022-12-19T08:41:18;101318.66;;;3.78;86.13
76114;BME280;64845;53.086;5.834;2022-12-19T08:43:52;101320.41;;;3.79;86.26
76114;BME280;64845;53.086;5.834;2022-12-19T08:46:18;101325.69;;;3.81;85.96
76114;BME280;64845;53.086;5.834;2022-12-19T08:48:44;101313.34;;;3.83;86.20
76114;BME280;64845;53.086;5.834;2022-12-19T08:51:11;101328.28;;;3.85;86.33
76114;BME280;64845;53.086;5.834;2022-12-19T08:53:39;101317.72;;;3.88;86.15
76114;BME280;64845;53.086;5.834;2022-12-19T08:56:25;101318.59;;;3.90;86.64
76114;BME280;64845;53.086;5.834;2022-12-19T08:58:51;101327.41;;;3.92;86.11
76114;BME280;64845;53.086;5.834;2022-12-19T09:01:18;101325.63;;;3.95;86.08
76114;BME280;64845;53.086;5.834;2022-12-19T09:03:45;101319.44;;;3.97;86.66
76114;BME280;64845;53.086;5.834;2022-12-19T09:06:12;101333.53;;;4.02;86.55
76114;BME280;64845;53.086;5.834;2022-12-19T09:08:39;101337.91;;;4.05;86.59
76114;BME280;64845;53.086;5.834;2022-12-19T09:11:07;101337.94;;;4.06;86.44
76114;BME280;64845;53.086;5.834;2022-12-19T09:13:34;101330.88;;;4.08;86.85
76114;BME280;64845;53.086;5.834;2022-12-19T09:16:00;101333.50;;;4.12;86.51
76114;BME280;64845;53.086;5.834;2022-12-19T09:18:26;101341.41;;;4.13;86.76
76114;BME280;64845;53.086;5.834;2022-12-19T09:20:53;101327.31;;;4.17;86.88
76114;BME280;64845;53.086;5.834;2022-12-19T09:23:19;101329.06;;;4.20;86.37
76114;BME280;64845;53.086;5.834;2022-12-19T09:25:45;101330.81;;;4.24;86.70
76114;BME280;64845;53.086;5.834;2022-12-19T09:28:10;101330.78;;;4.29;86.82
76114;BME280;64845;53.086;5.834;2022-12-19T09:30:36;101351.91;;;4.32;86.40
76114;BME280;64845;53.086;5.834;2022-12-19T09:33:01;101336.03;;;4.35;86.52
76114;BME280;64845;53.086;5.834;2022-12-19T09:35:27;101339.53;;;4.38;86.71
76114;BME280;64845;53.086;5.834;2022-12-19T09:37:52;101337.75;;;4.44;86.98
76114;BME280;64845;53.086;5.834;2022-12-19T09:40:17;101334.19;;;4.46;87.12
76114;BME280;64845;53.086;5.834;2022-12-19T09:43:09;101336.84;;;4.51;87.19
76114;BME280;64845;53.086;5.834;2022-12-19T09:45:47;101347.38;;;4.59;86.84
76114;BME280;64845;53.086;5.834;2022-12-19T09:48:21;101339.41;;;4.62;86.82
76114;BME280;64845;53.086;5.834;2022-12-19T09:50:59;101341.13;;;4.71;87.03
76114;BME280;64845;53.086;5.834;2022-12-19T09:53:32;101348.16;;;4.76;87.00
76114;BME280;64845;53.086;5.834;2022-12-19T09:56:01;101340.16;;;4.81;86.95
76114;BME280;64845;53.086;5.834;2022-12-19T10:01:52;101341.81;;;4.94;86.84
76114;BME280;64845;53.086;5.834;2022-12-19T10:04:20;101347.94;;;5.01;87.19
76114;BME280;64845;53.086;5.834;2022-12-19T10:06:49;101343.50;;;5.06;87.23
76114;BME280;64845;53.086;5.834;2022-12-19T10:09:18;101339.91;;;5.15;87.35
76114;BME280;64845;53.086;5.834;2022-12-19T10:11:58;101347.81;;;5.21;87.26
76114;BME280;64845;53.086;5.834;2022-12-19T10:20:29;101353.78;;;5.43;87.29
76114;BME280;64845;53.086;5.834;2022-12-19T10:23:16;101359.03;;;5.47;87.37
76114;BME280;64845;53.086;5.834;2022-12-19T10:36:23;101345.53;;;5.74;87.39
76114;BME280;64845;53.086;5.834;2022-12-19T10:39:05;101333.09;;;5.80;87.47
76114;BME280;64845;53.086;5.834;2022-12-19T10:41:33;101326.88;;;5.84;87.43
76114;BME280;64845;53.086;5.834;2022-12-19T10:44:07;101340.97;;;5.89;87.42
76114;BME280;64845;53.086;5.834;2022-12-19T10:46:42;101343.56;;;5.92;87.34
76114;BME280;64845;53.086;5.834;2022-12-19T10:49:22;101327.56;;;5.98;87.35
76114;BME280;64845;53.086;5.834;2022-12-19T10:52:02;101335.53;;;6.03;87.37
76114;BME280;64845;53.086;5.834;2022-12-19T11:00:14;101340.69;;;6.12;87.51
76114;BME280;64845;53.086;5.834;2022-12-19T11:02:41;101348.63;;;6.15;87.40
76114;BME280;64845;53.086;5.834;2022-12-19T11:05:29;101338.91;;;6.16;87.33
76114;BME280;64845;53.086;5.834;2022-12-19T11:08:08;101334.44;;;6.19;87.33
76114;BME280;64845;53.086;5.834;2022-12-19T11:10:44;101335.31;;;6.22;87.44
76114;BME280;64845;53.086;5.834;2022-12-19T11:13:20;101324.66;;;6.25;87.44
76114;BME280;64845;53.086;5.834;2022-12-19T11:15:51;101313.16;;;6.26;87.44
76114;BME280;64845;53.086;5.834;2022-12-19T11:18:17;101316.63;;;6.28;87.40
76114;BME280;64845;53.086;5.834;2022-12-19T11:21:03;101319.25;;;6.31;87.39
76114;BME280;64845;53.086;5.834;2022-12-19T11:23:30;101319.25;;;6.32;87.42
76114;BME280;64845;53.086;5.834;2022-12-19T11:26:01;101315.66;;;6.35;87.36
76114;BME280;64845;53.086;5.834;2022-12-19T11:28:34;101316.44;;;6.42;87.40
76114;BME280;64845;53.086;5.834;2022-12-19T11:31:07;101320.81;;;6.46;87.22
76114;BME280;64845;53.086;5.834;2022-12-19T11:33:35;101326.97;;;6.48;87.47
76114;BME280;64845;53.086;5.834;2022-12-19T11:36:03;101310.13;;;6.50;87.20
76114;BME280;64845;53.086;5.834;2022-12-19T11:38:49;101320.75;;;6.52;87.43
76114;BME280;64845;53.086;5.834;2022-12-19T11:41:28;101311.00;;;6.53;87.27
76114;BME280;64845;53.086;5.834;2022-12-19T11:43:58;101305.69;;;6.54;87.29
76114;BME280;64845;53.086;5.834;2022-12-19T11:46:35;101315.41;;;6.55;87.33
76114;BME280;64845;53.086;5.834;2022-12-19T11:54:58;101314.44;;;6.59;87.46
76114;BME280;64845;53.086;5.834;2022-12-19T11:57:25;101307.38;;;6.60;87.18
76114;BME280;64845;53.086;5.834;2022-12-19T11:59:52;101302.06;;;6.60;87.18
76114;BME280;64845;53.086;5.834;2022-12-19T12:05:43;101301.19;;;6.58;87.14
76114;BME280;64845;53.086;5.834;2022-12-19T12:11:01;101301.25;;;6.56;87.08
76114;BME280;64845;53.086;5.834;2022-12-19T12:13:46;101281.72;;;6.57;87.12
76114;BME280;64845;53.086;5.834;2022-12-19T12:16:19;101288.78;;;6.58;86.92
76114;BME280;64845;53.086;5.834;2022-12-19T12:21:39;101291.38;;;6.64;86.94
76114;BME280;64845;53.086;5.834;2022-12-19T12:30:19;101278.91;;;6.70;87.15
76114;BME280;64845;53.086;5.834;2022-12-19T12:35:34;101291.28;;;6.71;86.82
76114;BME280;64845;53.086;5.834;2022-12-19T12:44:19;101278.81;;;6.76;86.80
76114;BME280;64845;53.086;5.834;2022-12-19T12:46:49;101290.25;;;6.78;86.65
76114;BME280;64845;53.086;5.834;2022-12-19T12:49:34;101277.06;;;6.75;86.78
76114;BME280;64845;53.086;5.834;2022-12-19T12:52:07;101275.28;;;6.75;86.63
76114;BME280;64845;53.086;5.834;2022-12-19T12:54:37;101276.19;;;6.74;86.68
76114;BME280;64845;53.086;5.834;2022-12-19T12:57:03;101265.56;;;6.74;86.62
76114;BME280;64845;53.086;5.834;2022-12-19T12:59:30;101266.44;;;6.75;86.71
76114;BME280;64845;53.086;5.834;2022-12-19T13:02:20;101263.81;;;6.73;86.64
76114;BME280;64845;53.086;5.834;2022-12-19T13:04:58;101261.16;;;6.73;86.78
76114;BME280;64845;53.086;5.834;2022-12-19T13:07:33;101262.00;;;6.75;86.69
76114;BME280;64845;53.086;5.834;2022-12-19T13:10:17;101272.59;;;6.77;86.69
76114;BME280;64845;53.086;5.834;2022-12-19T13:13:12;101261.97;;;6.77;86.68
76114;BME280;64845;53.086;5.834;2022-12-19T13:15:43;101261.06;;;6.78;86.68
76114;BME280;64845;53.086;5.834;2022-12-19T13:18:29;101277.00;;;6.78;86.79
76114;BME280;64845;53.086;5.834;2022-12-19T13:20:56;101266.38;;;6.79;86.81
76114;BME280;64845;53.086;5.834;2022-12-19T13:25:54;101256.59;;;6.82;87.04
76114;BME280;64845;53.086;5.834;2022-12-19T13:38:59;101244.22;;;6.80;87.01
76114;BME280;64845;53.086;5.834;2022-12-19T13:41:27;101244.22;;;6.80;87.00
76114;BME280;64845;53.086;5.834;2022-12-19T13:44:11;101235.38;;;6.80;86.88
76114;BME280;64845;53.086;5.834;2022-12-19T13:46:42;101238.94;;;6.80;87.03
76114;BME280;64845;53.086;5.834;2022-12-19T13:49:24;101238.94;;;6.80;87.23
76114;BME280;64845;53.086;5.834;2022-12-19T13:51:54;101232.72;;;6.82;87.11
76114;BME280;64845;53.086;5.834;2022-12-19T13:54:21;101233.56;;;6.82;87.33
76114;BME280;64845;53.086;5.834;2022-12-19T13:56:48;101222.09;;;6.82;87.12
76114;BME280;64845;53.086;5.834;2022-12-19T13:59:13;101232.69;;;6.83;87.38
76114;BME280;64845;53.086;5.834;2022-12-19T14:01:40;101224.72;;;6.83;87.22
76114;BME280;64845;53.086;5.834;2022-12-19T14:04:27;101222.06;;;6.83;87.25
76114;BME280;64845;53.086;5.834;2022-12-19T14:07:25;101213.19;;;6.84;87.25
76114;BME280;64845;53.086;5.834;2022-12-19T14:09:43;101209.69;;;6.82;87.31
76114;BME280;64845;53.086;5.834;2022-12-19T14:12:20;101220.31;;;6.82;87.28
76114;BME280;64845;53.086;5.834;2022-12-19T14:15:38;101220.34;;;6.80;87.18
76114;BME280;64845;53.086;5.834;2022-12-19T14:18:23;101214.13;;;6.82;87.44
76114;BME280;64845;53.086;5.834;2022-12-19T14:20:51;101221.22;;;6.81;87.30
76114;BME280;64845;53.086;5.834;2022-12-19T14:23:30;101214.16;;;6.80;87.25
76114;BME280;64845;53.086;5.834;2022-12-19T14:25:56;101216.81;;;6.80;87.30
76114;BME280;64845;53.086;5.834;2022-12-19T14:28:38;101202.66;;;6.79;87.15
76114;BME280;64845;53.086;5.834;2022-12-19T14:31:11;101209.75;;;6.79;87.49
76114;BME280;64845;53.086;5.834;2022-12-19T14:33:42;101210.69;;;6.76;87.58
76114;BME280;64845;53.086;5.834;2022-12-19T14:36:08;101225.75;;;6.76;87.25
76114;BME280;64845;53.086;5.834;2022-12-19T14:38:35;101209.81;;;6.74;87.21
76114;BME280;64845;53.086;5.834;2022-12-19T14:41:01;101214.22;;;6.75;87.44
76114;BME280;64845;53.086;5.834;2022-12-19T14:43:29;101209.88;;;6.73;87.42
76114;BME280;64845;53.086;5.834;2022-12-19T14:48:57;101216.94;;;6.72;87.46
76114;BME280;64845;53.086;5.834;2022-12-19T14:56:42;101215.22;;;6.70;87.31